createdAt,value
2023-01-03T00:02:45.493Z,94.98
2023-01-03T00:06:50.563Z,94.62
2023-01-03T00:10:54.317Z,95.43
2023-01-03T00:15:02.989Z,95.21
2023-01-03T00:19:08.400Z,94.59
2023-01-03T00:23:11.296Z,95.17
2023-01-03T00:27:15.833Z,94.23
2023-01-03T00:31:20.713Z,95.23
2023-01-03T00:35:24.166Z,94.08
2023-01-03T00:39:27.567Z,94.01
2023-01-03T00:43:31.317Z,94.82
2023-01-03T00:47:42.007Z,94.62
2023-01-03T00:51:46.052Z,94.49
2023-01-03T00:55:50.492Z,95.80
2023-01-03T00:59:53.719Z,94.99
2023-01-03T01:03:59.866Z,94.74
2023-01-03T01:08:03.400Z,95.02
2023-01-03T01:12:08.523Z,94.99
2023-01-03T01:16:13.777Z,95.05
2023-01-03T01:20:19.184Z,94.71
2023-01-03T01:24:22.534Z,94.75
2023-01-03T01:28:25.921Z,95.04
2023-01-03T01:32:29.020Z,94.97
2023-01-03T01:36:37.820Z,94.98
2023-01-03T01:40:41.101Z,94.48
2023-01-03T01:44:55.044Z,94.63
2023-01-03T01:49:00.574Z,94.90
2023-01-03T01:53:08.781Z,94.82
2023-01-03T01:57:16.164Z,95.59
2023-01-03T02:01:22.019Z,95.11
2023-01-03T02:05:26.334Z,95.14
2023-01-03T02:09:33.532Z,95.27
2023-01-03T02:13:46.800Z,94.86
2023-01-03T02:17:58.782Z,95.06
2023-01-03T02:22:29.160Z,94.71
2023-01-03T02:26:46.387Z,94.35
2023-01-03T02:30:56.276Z,94.62
2023-01-03T02:35:04.959Z,94.92
2023-01-03T02:39:16.139Z,95.06
2023-01-03T02:43:27.529Z,95.49
2023-01-03T02:47:38.928Z,95.22
2023-01-03T02:51:44.821Z,94.91
2023-01-03T02:55:49.336Z,94.79
2023-01-03T02:59:57.563Z,95.33
2023-01-03T03:04:03.485Z,94.49
2023-01-03T03:08:06.540Z,95.01
2023-01-03T03:12:28.099Z,95.51
2023-01-03T03:16:51.211Z,95.18
2023-01-03T03:21:20.537Z,95.73
2023-01-03T03:25:26.802Z,94.98
2023-01-03T03:29:31.327Z,94.26
2023-01-03T03:33:37.334Z,93.68
2023-01-03T03:37:42.369Z,93.21
2023-01-03T03:42:06.671Z,93.78
2023-01-03T03:46:17.177Z,93.80
2023-01-03T03:50:25.378Z,94.62
2023-01-03T03:54:32.007Z,94.07
2023-01-03T03:58:38.473Z,93.63
2023-01-03T04:02:47.159Z,93.78
2023-01-03T04:06:51.941Z,93.96
2023-01-03T04:11:06.060Z,93.58
2023-01-03T04:15:10.766Z,93.95
2023-01-03T04:19:13.576Z,93.58
2023-01-03T04:23:16.624Z,93.84
2023-01-03T04:27:21.001Z,93.68
2023-01-03T04:31:24.578Z,93.93
2023-01-03T04:35:28.050Z,94.12
2023-01-03T04:39:31.016Z,93.59
2023-01-03T04:43:53.395Z,93.94
2023-01-03T04:47:56.163Z,93.86
2023-01-03T04:51:59.007Z,93.73
2023-01-03T04:56:02.049Z,94.12
2023-01-03T05:00:08.824Z,93.83
2023-01-03T05:04:12.206Z,93.93
2023-01-03T05:08:15.123Z,94.10
2023-01-03T05:12:18.126Z,94.17
2023-01-03T05:16:22.770Z,93.95
2023-01-03T05:20:42.689Z,93.82
2023-01-03T05:25:02.925Z,94.01
2023-01-03T05:29:05.736Z,94.26
2023-01-03T05:33:10.132Z,94.84
2023-01-03T05:37:13.005Z,95.23
2023-01-03T05:41:35.985Z,94.74
2023-01-03T05:45:39.704Z,94.50
2023-01-03T05:49:44.209Z,93.86
2023-01-03T05:53:47.336Z,94.36
2023-01-03T05:57:50.615Z,94.10
2023-01-03T06:01:55.565Z,94.83
2023-01-03T06:06:04.455Z,94.85
2023-01-03T06:10:09.026Z,94.43
2023-01-03T06:14:12.561Z,95.24
2023-01-03T06:18:15.919Z,94.50
2023-01-03T06:22:20.034Z,94.25
2023-01-03T06:26:24.689Z,94.56
2023-01-03T06:30:28.374Z,93.70
2023-01-03T06:34:31.444Z,94.03
2023-01-03T06:38:36.337Z,93.77
2023-01-03T06:42:43.379Z,93.85
2023-01-03T06:47:04.156Z,94.05
2023-01-03T06:51:26.537Z,93.81
2023-01-03T06:55:34.242Z,93.91
2023-01-03T06:59:37.580Z,94.29
2023-01-03T07:03:40.796Z,93.81
2023-01-03T07:07:43.604Z,93.34
2023-01-03T07:11:48.487Z,93.67
2023-01-03T07:15:51.643Z,93.71
2023-01-03T07:19:54.694Z,93.83
2023-01-03T07:24:01.977Z,93.96
2023-01-03T07:28:09.077Z,93.55
2023-01-03T07:32:13.110Z,93.82
2023-01-03T07:36:17.555Z,94.17
2023-01-03T07:40:21.095Z,94.39
2023-01-03T07:44:26.055Z,93.46
2023-01-03T07:48:28.675Z,93.51
2023-01-03T07:52:31.524Z,93.87
2023-01-03T07:56:34.901Z,94.09
2023-01-03T08:00:42.701Z,94.23
2023-01-03T08:04:45.873Z,94.67
2023-01-03T08:09:10.024Z,93.91
2023-01-03T08:13:21.211Z,94.37
2023-01-03T08:17:25.964Z,94.16
2023-01-03T08:21:28.933Z,94.07
2023-01-03T08:25:34.826Z,93.89
2023-01-03T08:29:37.773Z,94.43
2023-01-03T08:33:44.341Z,93.76
2023-01-03T08:37:48.293Z,93.69
2023-01-03T08:41:56.971Z,94.12
2023-01-03T08:45:59.860Z,93.91
2023-01-03T08:50:04.772Z,93.89
2023-01-03T08:54:07.610Z,94.13
2023-01-03T08:58:10.915Z,94.48
2023-01-03T09:02:13.884Z,94.49
2023-01-03T09:06:18.654Z,94.26
2023-01-03T09:10:22.076Z,93.67
2023-01-03T09:14:25.583Z,94.38
2023-01-03T09:18:28.616Z,94.37
2023-01-03T09:22:35.276Z,93.85
2023-01-03T09:26:38.211Z,94.08
2023-01-03T09:30:41.184Z,93.91
2023-01-03T09:34:47.243Z,93.69
2023-01-03T09:38:52.183Z,93.35
2023-01-03T09:43:12.861Z,93.40
2023-01-03T09:47:53.672Z,93.57
2023-01-03T09:52:13.922Z,93.67
2023-01-03T09:56:41.129Z,92.69
2023-01-03T10:01:06.099Z,92.82
2023-01-03T10:05:25.859Z,92.71
2023-01-03T10:09:34.498Z,92.97
2023-01-03T10:13:49.696Z,93.37
2023-01-03T10:17:59.639Z,93.11
2023-01-03T10:22:10.227Z,92.82
2023-01-03T10:26:13.629Z,93.36
2023-01-03T10:30:21.241Z,92.44
2023-01-03T10:34:25.863Z,93.18
2023-01-03T10:38:29.914Z,92.35
2023-01-03T10:42:35.604Z,92.67
2023-01-03T10:46:50.863Z,92.82
2023-01-03T10:50:54.005Z,91.85
2023-01-03T10:55:00.785Z,93.15
2023-01-03T10:59:14.140Z,92.38
2023-01-03T11:03:20.506Z,92.23
2023-01-03T11:07:23.785Z,92.44
2023-01-03T11:11:29.719Z,92.96
2023-01-03T11:15:39.749Z,92.95
2023-01-03T11:19:44.546Z,93.04
2023-01-03T11:24:08.127Z,92.84
2023-01-03T11:28:32.889Z,92.89
2023-01-03T11:32:47.005Z,93.12
2023-01-03T11:36:55.116Z,93.62
2023-01-03T11:41:06.741Z,93.97
2023-01-03T11:45:35.509Z,93.54
2023-01-03T11:49:49.612Z,93.53
2023-01-03T11:54:05.269Z,93.80
2023-01-03T11:58:22.688Z,93.52
2023-01-03T12:02:44.664Z,93.66
2023-01-03T12:07:14.300Z,93.47
2023-01-03T12:11:33.278Z,93.08
2023-01-03T12:15:44.637Z,93.00
2023-01-03T12:19:52.715Z,92.83
2023-01-03T12:23:59.893Z,92.73
2023-01-03T12:28:11.555Z,92.93
2023-01-03T12:32:18.487Z,92.72
2023-01-03T12:36:29.180Z,93.24
2023-01-03T12:40:39.446Z,91.94
2023-01-03T12:44:45.860Z,91.52
2023-01-03T12:48:56.045Z,92.13
2023-01-03T12:53:05.228Z,91.70
2023-01-03T12:57:20.351Z,91.45
2023-01-03T13:01:27.147Z,91.44
2023-01-03T13:05:35.769Z,91.64
2023-01-03T13:09:41.124Z,90.99
2023-01-03T13:14:00.385Z,91.93
2023-01-03T13:18:35.841Z,90.56
2023-01-03T13:22:53.928Z,89.88
2023-01-03T13:27:23.708Z,90.90
2023-01-03T13:32:02.400Z,89.87
2023-01-03T13:36:07.105Z,89.24
2023-01-03T13:40:39.415Z,90.40
2023-01-03T13:44:48.220Z,89.00
2023-01-03T13:48:56.923Z,89.27
2023-01-03T13:53:03.645Z,89.24
2023-01-03T13:57:23.216Z,89.34
2023-01-03T14:01:47.045Z,89.49
2023-01-03T14:06:12.120Z,89.50
2023-01-03T14:10:33.932Z,88.47
2023-01-03T14:14:39.516Z,89.36
2023-01-03T14:18:44.992Z,89.57
2023-01-03T14:22:49.756Z,88.77
2023-01-03T14:26:54.452Z,88.88
2023-01-03T14:31:03.054Z,88.86
2023-01-03T14:35:06.912Z,88.58
2023-01-03T14:39:22.248Z,89.17
2023-01-03T14:43:28.669Z,88.82
2023-01-03T14:47:35.326Z,89.42
2023-01-03T14:51:39.066Z,88.85
2023-01-03T14:55:44.754Z,89.25
2023-01-03T14:59:49.332Z,90.38
2023-01-03T15:03:53.233Z,89.42
2023-01-03T15:07:56.751Z,90.32
2023-01-03T15:12:00.451Z,91.15
2023-01-03T15:16:07.439Z,89.82
2023-01-03T15:20:11.468Z,90.40
2023-01-03T15:24:15.597Z,90.35
2023-01-03T15:28:26.819Z,90.05
2023-01-03T15:32:31.753Z,89.88
2023-01-03T15:36:34.659Z,90.33
2023-01-03T15:40:40.281Z,90.93
2023-01-03T15:44:43.292Z,90.86
2023-01-03T15:48:54.824Z,89.95
2023-01-03T15:52:57.937Z,91.02
2023-01-03T15:57:03.442Z,90.55
2023-01-03T16:01:07.545Z,90.31
2023-01-03T16:05:21.271Z,90.65
2023-01-03T16:09:25.201Z,90.17
2023-01-03T16:13:30.766Z,90.57
2023-01-03T16:23:01.473Z,90.60
2023-01-03T16:27:13.359Z,91.17
2023-01-03T16:31:20.735Z,90.46
2023-01-03T16:35:24.446Z,90.25
2023-01-03T16:39:28.975Z,90.49
2023-01-03T16:43:31.873Z,90.24
2023-01-03T16:47:35.755Z,90.11
2023-01-03T16:51:48.018Z,90.02
2023-01-03T16:55:56.319Z,90.76
2023-01-03T16:59:59.549Z,90.01
2023-01-03T17:04:03.007Z,90.53
2023-01-03T17:08:08.468Z,90.69
2023-01-03T17:12:14.540Z,90.68
2023-01-03T17:16:19.837Z,90.49
2023-01-03T17:31:07.646Z,90.51
2023-01-03T17:35:13.764Z,90.17
2023-01-03T17:39:16.780Z,90.63
2023-01-03T17:43:22.643Z,90.92
2023-01-03T17:47:44.753Z,90.21
2023-01-03T17:51:47.991Z,90.87
2023-01-03T17:55:51.085Z,90.71
2023-01-03T17:59:54.509Z,90.70
2023-01-03T18:03:59.548Z,92.00
2023-01-03T18:08:04.449Z,91.95
2023-01-03T18:12:07.865Z,90.59
2023-01-03T18:16:15.505Z,90.87
2023-01-03T18:20:21.019Z,91.07
2023-01-03T18:24:29.453Z,91.18
2023-01-03T18:28:32.720Z,90.98
2023-01-03T18:32:35.713Z,92.05
2023-01-03T18:36:43.040Z,92.63
2023-01-03T18:40:46.476Z,92.99
2023-01-03T18:44:50.744Z,92.81
2023-01-03T18:48:54.089Z,93.43
2023-01-03T18:53:01.608Z,93.57
2023-01-03T18:57:05.074Z,93.81
2023-01-03T19:01:08.555Z,92.92
2023-01-03T19:05:11.434Z,93.22
2023-01-03T19:09:20.290Z,93.39
2023-01-03T19:13:26.927Z,94.34
2023-01-03T19:17:30.041Z,94.50
2023-01-03T19:21:36.324Z,94.51
2023-01-03T19:25:40.784Z,92.73
2023-01-03T19:29:43.812Z,93.18
2023-01-03T19:33:46.701Z,92.43
2023-01-03T19:37:49.807Z,92.96
2023-01-03T19:42:13.270Z,92.88
2023-01-03T19:46:17.543Z,93.55
2023-01-03T19:50:23.130Z,93.19
2023-01-03T19:54:26.278Z,94.06
2023-01-03T19:58:32.956Z,94.11
2023-01-03T20:02:39.270Z,93.47
2023-01-03T20:06:42.555Z,93.76
2023-01-03T20:10:45.901Z,93.48
2023-01-03T20:14:52.515Z,94.54
2023-01-03T20:18:57.141Z,95.15
2023-01-03T20:23:05.630Z,94.26
2023-01-03T20:27:12.115Z,95.05
2023-01-03T20:31:20.386Z,94.63
2023-01-03T20:39:48.920Z,94.96
2023-01-03T20:43:52.547Z,94.58
2023-01-03T20:47:57.999Z,95.01
2023-01-03T20:52:02.069Z,95.98
2023-01-03T20:56:10.492Z,94.96
2023-01-03T21:00:25.152Z,94.31
2023-01-03T21:04:30.899Z,94.05
2023-01-03T21:08:51.985Z,95.33
2023-01-03T21:12:56.198Z,95.26
2023-01-03T21:16:59.287Z,94.31
2023-01-03T21:21:09.088Z,95.19
2023-01-03T21:25:19.341Z,95.15
2023-01-03T21:29:24.458Z,96.30
2023-01-03T21:33:27.738Z,95.63
2023-01-03T21:37:32.352Z,95.84
2023-01-03T21:41:57.861Z,96.34
2023-01-03T21:46:00.975Z,96.32
2023-01-03T21:50:04.636Z,96.07
2023-01-03T21:54:11.215Z,96.42
2023-01-03T21:58:14.779Z,96.53
2023-01-03T22:02:35.360Z,96.54
2023-01-03T22:06:39.503Z,95.69
2023-01-03T22:10:44.168Z,96.06
2023-01-03T22:14:47.432Z,95.71
2023-01-03T22:18:51.245Z,95.46
2023-01-03T22:22:54.705Z,95.33
2023-01-03T22:26:59.823Z,95.61
2023-01-03T22:31:06.207Z,95.21
2023-01-03T22:35:11.457Z,95.11
2023-01-03T22:39:14.351Z,95.31
2023-01-03T22:43:19.255Z,95.00
2023-01-03T22:47:22.251Z,95.14
2023-01-03T22:51:26.128Z,94.73
2023-01-03T22:55:32.288Z,94.66
2023-01-03T22:59:37.168Z,94.33
2023-01-03T23:03:40.818Z,94.10
2023-01-03T23:07:45.387Z,94.25
2023-01-03T23:12:05.905Z,94.52
2023-01-03T23:16:10.616Z,94.08
2023-01-03T23:20:14.604Z,94.58
2023-01-03T23:24:20.338Z,94.58
2023-01-03T23:28:23.192Z,94.66
2023-01-03T23:32:29.103Z,94.34
2023-01-03T23:36:32.465Z,94.42
2023-01-03T23:40:35.741Z,94.28
2023-01-03T23:44:38.890Z,94.03
2023-01-03T23:48:44.129Z,93.82
2023-01-03T23:52:47.304Z,93.77
2023-01-03T23:56:50.661Z,93.84
